createdAt,value
2019-01-31T00:00:35.784Z,-0.07
2019-01-31T00:03:41.587Z,-0.10
2019-01-31T00:06:19.827Z,-0.23
2019-01-31T00:09:13.069Z,-0.33
2019-01-31T00:12:09.707Z,-0.47
2019-01-31T00:14:46.480Z,-0.51
2019-01-31T00:17:57.264Z,-0.46
2019-01-31T00:21:00.732Z,-0.47
2019-01-31T00:24:04.236Z,-0.65
2019-01-31T00:26:55.785Z,-0.80
2019-01-31T00:29:46.265Z,-0.90
2019-01-31T00:32:56.507Z,-0.82
2019-01-31T00:35:59.124Z,-0.93
2019-01-31T00:38:56.757Z,-0.97
2019-01-31T00:42:00.675Z,-0.95
2019-01-31T00:45:05.740Z,-0.90
2019-01-31T00:48:14.912Z,-1.04
2019-01-31T00:50:53.421Z,-0.96
2019-01-31T00:53:52.787Z,-0.78
2019-01-31T00:56:56.294Z,-0.92
2019-01-31T00:59:56.508Z,-1.10
2019-01-31T01:03:01.340Z,-1.34
2019-01-31T01:06:26.230Z,-1.48
2019-01-31T01:09:44.529Z,-1.54
2019-01-31T01:13:05.345Z,-1.42
2019-01-31T01:16:06.903Z,-1.39
2019-01-31T01:18:47.315Z,-1.37
2019-01-31T01:21:44.538Z,-1.27
2019-01-31T01:24:37.445Z,-1.27
2019-01-31T01:27:32.797Z,-1.37
2019-01-31T01:30:43.360Z,-1.43
2019-01-31T01:33:38.991Z,-1.52
2019-01-31T01:36:27.461Z,-1.34
2019-01-31T01:39:26.767Z,-1.12
2019-01-31T01:42:03.738Z,-1.17
2019-01-31T01:45:18.040Z,-1.23
2019-01-31T01:47:58.088Z,-1.43
2019-01-31T01:50:41.697Z,-1.53
2019-01-31T01:53:46.276Z,-1.43
2019-01-31T01:56:32.097Z,-1.55
2019-01-31T01:59:32.051Z,-1.71
2019-01-31T02:02:47.114Z,-1.85
2019-01-31T02:05:47.096Z,-1.92
2019-01-31T02:08:50.733Z,-1.97
2019-01-31T02:11:48.775Z,-1.92
2019-01-31T02:14:28.087Z,-1.83
2019-01-31T02:17:03.391Z,-1.81
2019-01-31T02:20:00.565Z,-1.79
2019-01-31T02:23:09.293Z,-1.58
2019-01-31T02:25:58.562Z,-1.34
2019-01-31T02:28:56.215Z,-1.15
2019-01-31T02:31:49.725Z,-1.06
2019-01-31T02:35:03.355Z,-1.04
2019-01-31T02:38:07.530Z,-1.13
2019-01-31T02:40:56.062Z,-1.28
2019-01-31T02:43:52.329Z,-1.39
2019-01-31T02:46:38.193Z,-1.40
2019-01-31T02:49:36.868Z,-1.23
2019-01-31T02:52:30.881Z,-1.05
2019-01-31T02:55:53.085Z,-0.95
2019-01-31T02:59:11.425Z,-0.86
2019-01-31T03:01:50.643Z,-0.75
2019-01-31T03:04:59.081Z,-0.59
2019-01-31T03:08:00.012Z,-0.49
2019-01-31T03:10:39.414Z,-0.35
2019-01-31T03:13:29.765Z,-0.22
2019-01-31T03:16:26.203Z,-0.14
2019-01-31T03:19:32.336Z,-0.07
2019-01-31T03:22:52.021Z,0.04
2019-01-31T03:25:50.287Z,0.11
2019-01-31T03:29:17.368Z,0.15
2019-01-31T03:32:18.526Z,0.21
2019-01-31T03:35:11.855Z,0.26
2019-01-31T03:38:16.952Z,0.29
2019-01-31T03:41:03.773Z,0.37
2019-01-31T03:43:59.759Z,0.44
2019-01-31T03:46:53.469Z,0.51
2019-01-31T03:49:38.100Z,0.55
2019-01-31T03:52:42.191Z,0.62
2019-01-31T03:55:23.938Z,0.68
2019-01-31T03:58:33.212Z,0.75
2019-01-31T04:01:25.035Z,0.81
2019-01-31T04:04:14.922Z,0.87
2019-01-31T04:06:42.163Z,0.89
2019-01-31T04:09:10.522Z,0.86
2019-01-31T04:11:37.723Z,0.82
2019-01-31T04:14:05.132Z,0.83
2019-01-31T04:16:32.273Z,0.81
2019-01-31T04:18:59.398Z,0.82
2019-01-31T04:21:26.631Z,0.86
2019-01-31T04:23:53.776Z,0.88
2019-01-31T04:26:20.820Z,0.84
2019-01-31T04:28:48.117Z,0.79
2019-01-31T04:31:15.646Z,0.90
2019-01-31T04:33:42.802Z,0.84
2019-01-31T04:36:09.973Z,0.82
2019-01-31T04:38:37.104Z,0.83
2019-01-31T04:41:04.284Z,0.76
2019-01-31T04:43:31.472Z,0.81
2019-01-31T04:45:58.641Z,0.72
2019-01-31T04:48:25.689Z,0.68
2019-01-31T04:50:53.281Z,0.58
2019-01-31T04:53:20.434Z,0.64
2019-01-31T04:55:47.646Z,0.56
2019-01-31T04:58:14.813Z,0.56
2019-01-31T05:00:41.988Z,0.55
2019-01-31T05:03:09.023Z,0.49
2019-01-31T05:05:36.594Z,0.65
2019-01-31T05:08:03.673Z,0.64
2019-01-31T05:10:42.463Z,0.76
2019-01-31T05:12:59.899Z,0.72
2019-01-31T05:15:27.067Z,0.73
2019-01-31T05:17:54.128Z,0.64
2019-01-31T05:20:21.309Z,0.61
2019-01-31T05:22:48.483Z,0.61
2019-01-31T05:25:15.882Z,0.73
2019-01-31T05:27:43.084Z,0.68
2019-01-31T05:30:11.695Z,0.66
2019-01-31T05:32:39.726Z,0.63
2019-01-31T05:35:07.679Z,0.64
2019-01-31T05:37:34.820Z,0.69
2019-01-31T05:40:01.878Z,0.59
2019-01-31T05:42:29.273Z,0.54
2019-01-31T05:44:56.434Z,0.53
2019-01-31T05:47:23.505Z,0.59
2019-01-31T05:49:51.089Z,0.55
2019-01-31T05:52:18.424Z,0.50
2019-01-31T05:54:45.875Z,0.48
2019-01-31T05:57:13.032Z,0.53
2019-01-31T05:59:40.119Z,0.50
2019-01-31T06:02:07.247Z,0.51
2019-01-31T06:04:34.450Z,0.43
2019-01-31T06:07:10.968Z,0.33
2019-01-31T06:09:30.775Z,0.28
2019-01-31T06:11:57.936Z,0.41
2019-01-31T06:14:25.154Z,0.35
2019-01-31T06:16:52.430Z,0.32
2019-01-31T06:19:19.589Z,0.29
2019-01-31T06:21:46.766Z,0.44
2019-01-31T06:24:13.943Z,0.43
2019-01-31T06:26:41.203Z,0.38
2019-01-31T06:29:08.348Z,0.37
2019-01-31T06:31:35.550Z,0.34
2019-01-31T06:34:02.768Z,0.40
2019-01-31T06:36:30.284Z,0.61
2019-01-31T06:38:57.444Z,0.69
2019-01-31T06:41:24.673Z,0.74
2019-01-31T06:43:51.816Z,0.92
2019-01-31T06:46:19.031Z,0.82
2019-01-31T06:48:46.209Z,0.71
2019-01-31T06:51:13.428Z,0.73
2019-01-31T06:53:40.801Z,0.78
2019-01-31T06:56:07.970Z,0.75
2019-01-31T06:58:35.148Z,0.86
2019-01-31T07:01:02.295Z,0.86
2019-01-31T07:03:29.453Z,1.06
2019-01-31T07:05:56.486Z,1.07
2019-01-31T07:08:23.540Z,0.96
2019-01-31T07:10:50.743Z,0.91
2019-01-31T07:13:17.933Z,0.97
2019-01-31T07:15:45.078Z,0.96
2019-01-31T07:18:12.239Z,0.99
2019-01-31T07:20:39.289Z,1.03
2019-01-31T07:23:06.461Z,1.05
2019-01-31T07:25:33.692Z,1.08
2019-01-31T07:28:00.841Z,1.22
2019-01-31T07:30:28.074Z,1.13
2019-01-31T07:32:55.278Z,1.12
2019-01-31T07:35:24.927Z,1.13
2019-01-31T07:38:16.892Z,1.17
2019-01-31T07:40:44.308Z,1.24
2019-01-31T07:43:11.577Z,1.39
2019-01-31T07:45:38.755Z,1.48
2019-01-31T07:48:05.832Z,1.57
2019-01-31T07:50:32.952Z,1.64
2019-01-31T07:53:00.118Z,1.67
2019-01-31T07:55:27.504Z,1.71
2019-01-31T07:57:54.746Z,1.76
2019-01-31T08:00:22.208Z,1.81
2019-01-31T08:02:49.295Z,1.85
2019-01-31T08:05:18.128Z,1.88
2019-01-31T08:07:46.098Z,1.92
2019-01-31T08:10:21.229Z,1.94
2019-01-31T08:12:48.421Z,1.92
2019-01-31T08:15:23.602Z,1.93
2019-01-31T08:17:50.826Z,1.94
2019-01-31T08:20:18.040Z,1.99
2019-01-31T08:22:45.330Z,2.06
2019-01-31T08:25:15.044Z,2.17
2019-01-31T08:27:42.242Z,2.23
2019-01-31T08:30:13.091Z,2.22
2019-01-31T08:32:40.269Z,2.16
2019-01-31T08:35:07.685Z,2.14
2019-01-31T08:37:34.877Z,2.07
2019-01-31T08:40:02.185Z,2.01
2019-01-31T08:42:29.320Z,2.00
2019-01-31T08:44:56.566Z,2.02
2019-01-31T08:47:23.607Z,2.05
2019-01-31T08:49:50.757Z,2.08
2019-01-31T08:52:17.837Z,2.15
2019-01-31T08:54:45.013Z,2.23
2019-01-31T08:57:12.173Z,2.35
2019-01-31T08:59:39.718Z,2.50
2019-01-31T09:02:06.880Z,2.30
2019-01-31T09:04:34.092Z,2.09
2019-01-31T09:07:01.318Z,2.05
2019-01-31T09:09:28.452Z,2.00
2019-01-31T09:11:55.706Z,1.90
2019-01-31T09:14:22.882Z,1.85
2019-01-31T09:16:50.064Z,1.87
2019-01-31T09:19:17.213Z,1.83
2019-01-31T09:22:03.855Z,1.79
2019-01-31T09:24:58.870Z,1.77
2019-01-31T09:27:46.949Z,1.75
2019-01-31T09:30:51.736Z,1.77
2019-01-31T09:33:30.771Z,1.80
2019-01-31T09:36:26.785Z,1.89
2019-01-31T09:39:27.932Z,2.03
2019-01-31T09:42:40.335Z,2.04
2019-01-31T09:45:45.502Z,2.07
2019-01-31T09:48:22.349Z,2.22
2019-01-31T09:51:29.419Z,2.33
2019-01-31T09:54:10.077Z,2.40
2019-01-31T09:57:04.223Z,2.44
2019-01-31T10:00:11.470Z,2.52
2019-01-31T10:03:19.977Z,2.76
2019-01-31T10:06:31.902Z,2.79
2019-01-31T10:09:29.655Z,2.84
2019-01-31T10:12:25.258Z,3.11
2019-01-31T10:15:29.929Z,3.37
2019-01-31T10:18:21.114Z,3.63
2019-01-31T10:21:36.043Z,3.70
2019-01-31T10:24:56.602Z,3.73
2019-01-31T10:28:13.424Z,3.69
2019-01-31T10:30:57.520Z,3.56
2019-01-31T10:33:54.506Z,3.49
2019-01-31T10:36:34.062Z,3.54
2019-01-31T10:39:20.953Z,3.53
2019-01-31T10:42:19.052Z,3.49
2019-01-31T10:45:09.427Z,3.32
2019-01-31T10:47:55.076Z,3.15
2019-01-31T10:50:58.731Z,3.09
2019-01-31T10:54:12.168Z,3.11
2019-01-31T10:57:15.706Z,3.14
2019-01-31T11:00:16.820Z,3.17
2019-01-31T11:03:14.983Z,3.20
2019-01-31T11:06:15.344Z,3.20
2019-01-31T11:09:23.924Z,3.21
2019-01-31T11:12:31.482Z,3.27
2019-01-31T11:15:36.115Z,3.29
2019-01-31T11:18:37.214Z,3.32
2019-01-31T11:21:48.485Z,3.18
2019-01-31T11:24:57.485Z,3.22
2019-01-31T11:28:24.335Z,3.39
2019-01-31T11:31:31.518Z,3.53
2019-01-31T11:34:49.809Z,3.76
2019-01-31T11:37:54.597Z,3.87
2019-01-31T11:40:46.901Z,3.88
2019-01-31T11:43:28.698Z,3.84
2019-01-31T11:46:12.508Z,3.81
2019-01-31T11:49:19.070Z,3.92
2019-01-31T11:52:42.858Z,4.26
2019-01-31T11:55:17.380Z,4.59
2019-01-31T11:58:03.093Z,4.99
2019-01-31T12:00:30.161Z,5.16
2019-01-31T12:02:57.324Z,5.17
2019-01-31T12:05:24.412Z,5.08
2019-01-31T12:07:51.851Z,5.03
2019-01-31T12:10:19.262Z,5.03
2019-01-31T12:12:46.523Z,5.07
2019-01-31T12:15:13.672Z,5.11
2019-01-31T12:17:40.736Z,4.98
2019-01-31T12:20:09.077Z,4.97
2019-01-31T12:22:36.260Z,5.09
2019-01-31T12:25:03.664Z,5.11
2019-01-31T12:27:30.855Z,5.02
2019-01-31T12:29:58.015Z,5.02
2019-01-31T12:32:25.205Z,5.06
2019-01-31T12:34:53.096Z,5.21
2019-01-31T12:37:20.478Z,5.39
2019-01-31T12:39:47.664Z,5.56
2019-01-31T12:42:14.756Z,5.70
2019-01-31T12:44:41.944Z,5.88
2019-01-31T12:47:09.001Z,6.02
2019-01-31T12:49:36.499Z,6.17
2019-01-31T12:52:04.338Z,6.30
2019-01-31T12:54:31.574Z,6.32
2019-01-31T12:56:58.780Z,6.26
2019-01-31T12:59:25.970Z,6.13
2019-01-31T13:01:53.118Z,6.00
2019-01-31T13:04:20.746Z,5.85
2019-01-31T13:06:47.855Z,5.70
2019-01-31T13:09:15.055Z,5.50
2019-01-31T13:11:42.464Z,5.18
2019-01-31T13:14:09.625Z,5.06
2019-01-31T13:16:36.852Z,5.18
2019-01-31T13:19:04.269Z,5.18
2019-01-31T13:21:31.742Z,5.17
2019-01-31T13:23:59.022Z,5.19
2019-01-31T13:26:26.290Z,5.04
2019-01-31T13:28:53.384Z,4.97
2019-01-31T13:31:20.574Z,4.96
2019-01-31T13:33:47.901Z,4.89
2019-01-31T13:36:15.211Z,4.83
2019-01-31T13:38:42.441Z,4.80
2019-01-31T13:41:10.159Z,4.71
2019-01-31T13:43:37.630Z,4.76
2019-01-31T13:46:05.603Z,4.76
2019-01-31T13:48:32.822Z,4.81
2019-01-31T13:50:59.907Z,4.74
2019-01-31T13:53:27.093Z,4.71
2019-01-31T13:55:54.322Z,4.72
2019-01-31T13:58:21.587Z,4.65
2019-01-31T14:00:48.806Z,4.62
2019-01-31T14:03:16.174Z,4.54
2019-01-31T14:05:43.496Z,4.49
2019-01-31T14:08:10.688Z,4.49
2019-01-31T14:10:37.793Z,4.39
2019-01-31T14:13:04.974Z,4.38
2019-01-31T14:15:34.173Z,4.40
2019-01-31T14:18:01.580Z,4.42
2019-01-31T14:20:28.892Z,4.40
2019-01-31T14:22:56.935Z,4.40
2019-01-31T14:25:24.340Z,4.48
2019-01-31T14:27:51.483Z,4.46
2019-01-31T14:30:21.726Z,4.39
2019-01-31T14:32:49.491Z,4.36
2019-01-31T14:35:16.692Z,4.33
2019-01-31T14:37:43.887Z,4.28
2019-01-31T14:40:11.101Z,4.28
2019-01-31T14:42:38.283Z,4.27
2019-01-31T14:45:06.134Z,4.31
2019-01-31T14:47:33.509Z,4.30
2019-01-31T14:50:00.654Z,4.27
2019-01-31T14:52:27.778Z,4.27
2019-01-31T14:54:54.943Z,4.18
2019-01-31T14:57:22.166Z,4.17
2019-01-31T14:59:49.322Z,4.25
2019-01-31T15:02:16.540Z,4.20
2019-01-31T15:04:43.700Z,4.07
2019-01-31T15:07:11.200Z,3.97
2019-01-31T15:09:38.376Z,3.95
2019-01-31T15:12:06.302Z,3.93
2019-01-31T15:14:33.531Z,3.92
2019-01-31T15:17:00.912Z,3.86
2019-01-31T15:19:28.386Z,3.82
2019-01-31T15:21:55.612Z,3.78
2019-01-31T15:24:22.794Z,3.73
2019-01-31T15:26:51.746Z,3.69
2019-01-31T15:29:19.218Z,3.63
2019-01-31T15:31:46.401Z,3.58
2019-01-31T15:34:13.460Z,3.66
2019-01-31T15:36:40.768Z,3.61
2019-01-31T15:39:08.476Z,3.48
2019-01-31T15:41:35.614Z,3.44
2019-01-31T15:44:03.160Z,3.40
2019-01-31T15:46:30.334Z,3.47
2019-01-31T15:48:57.490Z,3.42
2019-01-31T15:51:24.642Z,3.29
2019-01-31T15:53:51.895Z,3.32
2019-01-31T15:56:19.047Z,3.26
2019-01-31T15:58:46.232Z,3.24
2019-01-31T16:01:13.901Z,3.15
2019-01-31T16:03:41.395Z,3.07
2019-01-31T16:06:08.654Z,2.92
2019-01-31T16:08:35.864Z,2.84
2019-01-31T16:11:03.365Z,2.80
2019-01-31T16:13:30.881Z,2.74
2019-01-31T16:15:58.007Z,2.72
2019-01-31T16:18:25.557Z,2.72
2019-01-31T16:20:52.615Z,2.68
2019-01-31T16:23:19.903Z,2.65
2019-01-31T16:25:48.000Z,2.67
2019-01-31T16:28:15.444Z,2.61
2019-01-31T16:30:42.623Z,2.52
2019-01-31T16:33:09.944Z,2.48
2019-01-31T16:35:38.389Z,2.39
2019-01-31T16:38:06.216Z,2.38
2019-01-31T16:40:33.437Z,2.41
2019-01-31T16:43:00.623Z,2.44
2019-01-31T16:45:28.351Z,2.39
2019-01-31T16:47:55.611Z,2.29
2019-01-31T16:50:23.169Z,2.21
2019-01-31T16:52:50.373Z,2.15
2019-01-31T16:55:18.212Z,2.07
2019-01-31T16:57:45.571Z,1.96
2019-01-31T17:00:24.445Z,1.77
2019-01-31T17:02:51.612Z,1.57
2019-01-31T17:05:20.666Z,1.57
2019-01-31T17:07:57.848Z,1.51
2019-01-31T17:10:25.840Z,1.38
2019-01-31T17:12:53.016Z,1.25
2019-01-31T17:15:20.460Z,1.14
2019-01-31T17:17:47.516Z,1.31
2019-01-31T17:20:20.322Z,1.39
2019-01-31T17:22:47.528Z,1.43
2019-01-31T17:25:14.977Z,1.36
2019-01-31T17:27:42.125Z,1.33
2019-01-31T17:30:15.602Z,1.35
2019-01-31T17:32:43.189Z,1.29
2019-01-31T17:35:10.447Z,1.15
2019-01-31T17:37:37.807Z,1.19
2019-01-31T17:40:06.581Z,1.41
2019-01-31T17:42:39.853Z,1.46
2019-01-31T17:45:07.791Z,1.66
2019-01-31T17:47:34.960Z,1.86
2019-01-31T17:50:02.083Z,2.06
2019-01-31T17:52:29.232Z,2.09
2019-01-31T17:54:56.379Z,2.09
2019-01-31T17:57:23.557Z,2.04
2019-01-31T17:59:50.760Z,2.12
2019-01-31T18:02:17.918Z,2.14
2019-01-31T18:04:45.095Z,2.08
2019-01-31T18:07:12.252Z,2.01
2019-01-31T18:09:39.528Z,1.83
2019-01-31T18:12:13.153Z,1.63
2019-01-31T18:14:42.939Z,1.36
2019-01-31T18:17:10.095Z,1.14
2019-01-31T18:19:38.159Z,0.91
2019-01-31T18:22:05.683Z,0.72
2019-01-31T18:24:32.877Z,0.55
2019-01-31T18:27:00.073Z,0.49
2019-01-31T18:29:27.233Z,0.61
2019-01-31T18:31:54.447Z,0.50
2019-01-31T18:34:21.623Z,0.44
2019-01-31T18:36:48.683Z,0.37
2019-01-31T18:39:15.890Z,0.38
2019-01-31T18:41:43.093Z,0.46
2019-01-31T18:44:11.128Z,0.56
2019-01-31T18:46:38.654Z,0.58
2019-01-31T18:49:05.900Z,0.73
2019-01-31T18:51:33.040Z,0.74
2019-01-31T18:54:00.217Z,0.78
2019-01-31T18:56:27.388Z,0.88
2019-01-31T18:58:54.650Z,0.84
2019-01-31T19:01:21.827Z,0.78
2019-01-31T19:03:49.406Z,0.69
2019-01-31T19:06:16.544Z,0.74
2019-01-31T19:08:43.729Z,0.83
2019-01-31T19:11:10.913Z,0.63
2019-01-31T19:13:38.160Z,0.47
2019-01-31T19:16:08.005Z,0.47
2019-01-31T19:18:35.309Z,0.44
2019-01-31T19:21:02.586Z,0.49
2019-01-31T19:23:30.960Z,0.52
2019-01-31T19:25:58.169Z,0.45
2019-01-31T19:28:25.371Z,0.55
2019-01-31T19:30:52.568Z,0.51
2019-01-31T19:33:20.262Z,0.65
2019-01-31T19:35:49.097Z,0.62
2019-01-31T19:38:16.470Z,0.73
2019-01-31T19:40:44.637Z,0.72
2019-01-31T19:43:12.114Z,0.56
2019-01-31T19:45:41.447Z,0.59
2019-01-31T19:48:10.082Z,0.46
2019-01-31T19:50:37.325Z,0.56
2019-01-31T19:53:08.068Z,0.30
2019-01-31T19:55:35.933Z,0.32
2019-01-31T19:58:03.630Z,0.38
2019-01-31T20:00:30.702Z,0.49
2019-01-31T20:02:57.931Z,0.39
2019-01-31T20:05:25.087Z,0.26
2019-01-31T20:07:52.510Z,0.29
2019-01-31T20:10:21.652Z,0.16
2019-01-31T20:12:49.102Z,0.22
2019-01-31T20:15:16.462Z,0.23
2019-01-31T20:17:43.538Z,0.27
2019-01-31T20:20:13.870Z,0.53
2019-01-31T20:22:41.511Z,0.52
2019-01-31T20:25:09.670Z,0.58
2019-01-31T20:27:38.742Z,0.52
2019-01-31T20:30:07.206Z,0.52
2019-01-31T20:32:34.427Z,0.47
2019-01-31T20:35:01.656Z,0.57
2019-01-31T20:37:28.938Z,0.51
2019-01-31T20:39:56.248Z,0.60
2019-01-31T20:42:23.739Z,0.59
2019-01-31T20:44:51.347Z,0.66
2019-01-31T20:47:18.544Z,0.66
2019-01-31T20:49:45.742Z,0.86
2019-01-31T20:52:12.844Z,0.73
2019-01-31T20:54:40.066Z,0.71
2019-01-31T20:57:07.249Z,0.94
2019-01-31T20:59:34.682Z,0.85
2019-01-31T21:02:01.880Z,0.84
2019-01-31T21:04:29.206Z,0.96
2019-01-31T21:06:56.394Z,1.09
2019-01-31T21:09:23.619Z,1.08
2019-01-31T21:11:51.151Z,1.02
2019-01-31T21:14:18.648Z,1.02
2019-01-31T21:16:51.765Z,1.01
2019-01-31T21:19:14.997Z,1.07
2019-01-31T21:21:42.239Z,1.12
2019-01-31T21:24:09.505Z,1.23
2019-01-31T21:26:36.822Z,1.19
2019-01-31T21:29:04.446Z,1.26
2019-01-31T21:31:31.788Z,1.28
2019-01-31T21:33:58.929Z,1.20
2019-01-31T21:36:26.137Z,1.08
2019-01-31T21:38:53.345Z,1.06
2019-01-31T21:41:20.529Z,1.21
2019-01-31T21:43:47.701Z,1.12
2019-01-31T21:46:14.940Z,1.18
2019-01-31T21:48:42.185Z,1.29
2019-01-31T21:51:09.626Z,1.36
2019-01-31T21:53:36.962Z,1.54
2019-01-31T21:56:04.332Z,1.49
2019-01-31T21:58:31.548Z,1.46
2019-01-31T22:00:59.038Z,1.52
2019-01-31T22:03:26.253Z,1.52
2019-01-31T22:05:53.436Z,1.49
2019-01-31T22:08:20.700Z,1.49
2019-01-31T22:10:47.747Z,1.41
2019-01-31T22:13:14.908Z,1.36
2019-01-31T22:15:42.292Z,1.35
2019-01-31T22:18:09.476Z,1.35
2019-01-31T22:20:36.538Z,1.26
2019-01-31T22:23:03.843Z,1.27
2019-01-31T22:25:30.994Z,1.26
2019-01-31T22:27:58.474Z,1.28
2019-01-31T22:30:27.953Z,1.23
2019-01-31T22:32:55.096Z,1.16
2019-01-31T22:35:22.263Z,1.14
2019-01-31T22:37:49.671Z,1.15
2019-01-31T22:40:17.780Z,1.18
2019-01-31T22:42:45.233Z,1.20
2019-01-31T22:45:14.616Z,1.18
2019-01-31T22:47:41.824Z,1.16
2019-01-31T22:50:10.914Z,1.15
2019-01-31T22:52:38.026Z,1.19
2019-01-31T22:55:06.031Z,1.37
2019-01-31T22:57:33.095Z,1.44
2019-01-31T23:00:00.528Z,1.66
2019-01-31T23:02:27.718Z,1.59
2019-01-31T23:04:54.866Z,1.59
2019-01-31T23:07:22.072Z,1.58
2019-01-31T23:09:49.219Z,1.59
2019-01-31T23:12:16.393Z,1.61
2019-01-31T23:14:43.573Z,1.61
2019-01-31T23:17:11.003Z,1.66
2019-01-31T23:19:38.447Z,1.68
2019-01-31T23:22:05.726Z,1.67
2019-01-31T23:24:32.874Z,1.71
2019-01-31T23:27:00.051Z,1.81
2019-01-31T23:29:27.233Z,1.97
2019-01-31T23:31:54.405Z,1.97
2019-01-31T23:34:21.451Z,1.97
2019-01-31T23:36:48.702Z,2.00
2019-01-31T23:39:15.701Z,1.99
2019-01-31T23:41:42.862Z,2.04
2019-01-31T23:44:10.062Z,2.15
2019-01-31T23:46:37.258Z,2.09
2019-01-31T23:49:04.512Z,2.08
2019-01-31T23:51:31.685Z,2.09
2019-01-31T23:53:58.851Z,2.11
2019-01-31T23:56:26.020Z,2.09
2019-01-31T23:58:53.187Z,2.14
